sensor_id;sensor_type;location;lat;lon;timestamp;pressure;altitude;pressure_sealevel;temperature;humidity
15971;BME280;59785;52.582;13.892;2022-08-19T00:09:33;100146.22;;;20.45;100.00
15971;BME280;59785;52.582;13.892;2022-08-19T00:11:59;100145.28;;;20.52;100.00
15971;BME280;59785;52.582;13.892;2022-08-19T00:14:28;100145.84;;;20.54;100.00
15971;BME280;59785;52.582;13.892;2022-08-19T00:16:57;100161.97;;;20.55;100.00
15971;BME280;59785;52.582;13.892;2022-08-19T00:19:24;100168.47;;;20.54;100.00
15971;BME280;59785;52.582;13.892;2022-08-19T00:21:51;100190.81;;;20.56;100.00
15971;BME280;59785;52.582;13.892;2022-08-19T00:24:17;100209.88;;;20.56;100.00
15971;BME280;59785;52.582;13.892;2022-08-19T00:26:45;100211.19;;;20.54;100.00
15971;BME280;59785;52.582;13.892;2022-08-19T00:29:13;100205.59;;;20.48;100.00
15971;BME280;59785;52.582;13.892;2022-08-19T00:31:40;100195.19;;;20.45;100.00
15971;BME280;59785;52.582;13.892;2022-08-19T00:34:07;100192.25;;;20.47;100.00
15971;BME280;59785;52.582;13.892;2022-08-19T00:36:33;100198.03;;;20.51;100.00
15971;BME280;59785;52.582;13.892;2022-08-19T00:39:00;100194.25;;;20.52;100.00
15971;BME280;59785;52.582;13.892;2022-08-19T00:41:27;100205.16;;;20.52;100.00
15971;BME280;59785;52.582;13.892;2022-08-19T00:44:04;100204.91;;;20.53;100.00
15971;BME280;59785;52.582;13.892;2022-08-19T00:46:32;100220.66;;;20.51;100.00
15971;BME280;59785;52.582;13.892;2022-08-19T00:49:00;100227.38;;;20.48;100.00
15971;BME280;59785;52.582;13.892;2022-08-19T00:51:27;100225.94;;;20.46;100.00
15971;BME280;59785;52.582;13.892;2022-08-19T00:53:57;100222.84;;;20.42;100.00
15971;BME280;59785;52.582;13.892;2022-08-19T00:56:24;100191.97;;;20.37;100.00
15971;BME280;59785;52.582;13.892;2022-08-19T00:58:54;100193.59;;;20.26;100.00
15971;BME280;59785;52.582;13.892;2022-08-19T01:01:22;100193.06;;;20.17;100.00
15971;BME280;59785;52.582;13.892;2022-08-19T01:03:48;100191.13;;;20.06;100.00
15971;BME280;59785;52.582;13.892;2022-08-19T01:06:23;100195.47;;;19.95;100.00
15971;BME280;59785;52.582;13.892;2022-08-19T01:08:49;100188.19;;;19.70;100.00
15971;BME280;59785;52.582;13.892;2022-08-19T01:11:15;100201.50;;;19.60;100.00
15971;BME280;59785;52.582;13.892;2022-08-19T01:13:42;100204.44;;;19.59;100.00
15971;BME280;59785;52.582;13.892;2022-08-19T01:16:16;100194.66;;;19.58;100.00
15971;BME280;59785;52.582;13.892;2022-08-19T01:18:43;100180.50;;;19.49;100.00
15971;BME280;59785;52.582;13.892;2022-08-19T01:23:58;100149.19;;;19.09;100.00
15971;BME280;59785;52.582;13.892;2022-08-19T01:26:25;100155.72;;;19.02;100.00
15971;BME280;59785;52.582;13.892;2022-08-19T01:28:56;100189.97;;;19.03;100.00
15971;BME280;59785;52.582;13.892;2022-08-19T01:31:28;100190.19;;;19.01;100.00
15971;BME280;59785;52.582;13.892;2022-08-19T01:33:59;100185.22;;;18.98;100.00
15971;BME280;59785;52.582;13.892;2022-08-19T01:36:42;100195.69;;;18.95;100.00
15971;BME280;59785;52.582;13.892;2022-08-19T01:39:12;100206.22;;;18.84;100.00
15971;BME280;59785;52.582;13.892;2022-08-19T01:41:38;100230.03;;;18.82;100.00
15971;BME280;59785;52.582;13.892;2022-08-19T01:44:06;100232.28;;;18.85;100.00
15971;BME280;59785;52.582;13.892;2022-08-19T01:46:44;100219.09;;;18.89;100.00
15971;BME280;59785;52.582;13.892;2022-08-19T01:49:13;100214.53;;;18.89;100.00
15971;BME280;59785;52.582;13.892;2022-08-19T01:51:40;100212.81;;;18.95;100.00
15971;BME280;59785;52.582;13.892;2022-08-19T01:54:08;100210.53;;;18.92;100.00
15971;BME280;59785;52.582;13.892;2022-08-19T01:56:34;100225.38;;;18.89;100.00
15971;BME280;59785;52.582;13.892;2022-08-19T01:59:04;100210.34;;;18.87;100.00
15971;BME280;59785;52.582;13.892;2022-08-19T02:01:34;100182.00;;;18.83;100.00
15971;BME280;59785;52.582;13.892;2022-08-19T02:04:01;100169.84;;;18.85;100.00
15971;BME280;59785;52.582;13.892;2022-08-19T02:06:28;100156.66;;;18.89;100.00
15971;BME280;59785;52.582;13.892;2022-08-19T02:08:55;100164.44;;;18.85;100.00
15971;BME280;59785;52.582;13.892;2022-08-19T02:11:26;100160.66;;;18.86;100.00
15971;BME280;59785;52.582;13.892;2022-08-19T02:13:53;100162.09;;;18.89;100.00
15971;BME280;59785;52.582;13.892;2022-08-19T02:16:21;100147.78;;;18.82;100.00
15971;BME280;59785;52.582;13.892;2022-08-19T02:18:47;100162.78;;;18.84;100.00
15971;BME280;59785;52.582;13.892;2022-08-19T02:21:18;100156.97;;;18.81;100.00
15971;BME280;59785;52.582;13.892;2022-08-19T02:23:45;100156.97;;;18.81;100.00
15971;BME280;59785;52.582;13.892;2022-08-19T02:26:12;100155.69;;;18.83;100.00
15971;BME280;59785;52.582;13.892;2022-08-19T02:28:39;100154.22;;;18.87;100.00
15971;BME280;59785;52.582;13.892;2022-08-19T02:31:12;100148.78;;;18.87;100.00
15971;BME280;59785;52.582;13.892;2022-08-19T02:33:38;100155.63;;;18.90;100.00
15971;BME280;59785;52.582;13.892;2022-08-19T02:36:05;100145.66;;;18.84;100.00
15971;BME280;59785;52.582;13.892;2022-08-19T02:38:32;100144.00;;;18.83;100.00
15971;BME280;59785;52.582;13.892;2022-08-19T02:41:01;100141.31;;;18.76;100.00
15971;BME280;59785;52.582;13.892;2022-08-19T02:43:29;100148.41;;;18.77;100.00
15971;BME280;59785;52.582;13.892;2022-08-19T02:45:59;100134.81;;;18.77;100.00
15971;BME280;59785;52.582;13.892;2022-08-19T02:48:26;100119.78;;;18.81;100.00
15971;BME280;59785;52.582;13.892;2022-08-19T02:50:52;100133.13;;;18.83;100.00
15971;BME280;59785;52.582;13.892;2022-08-19T02:53:26;100159.84;;;18.79;100.00
15971;BME280;59785;52.582;13.892;2022-08-19T02:55:52;100157.22;;;18.72;100.00
15971;BME280;59785;52.582;13.892;2022-08-19T02:58:20;100150.50;;;18.75;100.00
15971;BME280;59785;52.582;13.892;2022-08-19T03:00:50;100141.53;;;18.75;100.00
15971;BME280;59785;52.582;13.892;2022-08-19T03:03:17;100129.41;;;18.77;100.00
15971;BME280;59785;52.582;13.892;2022-08-19T03:05:43;100150.28;;;18.77;100.00
15971;BME280;59785;52.582;13.892;2022-08-19T03:08:20;100135.69;;;18.78;100.00
15971;BME280;59785;52.582;13.892;2022-08-19T03:10:47;100124.56;;;18.79;100.00
15971;BME280;59785;52.582;13.892;2022-08-19T03:13:17;100129.00;;;18.80;100.00
15971;BME280;59785;52.582;13.892;2022-08-19T03:15:45;100136.91;;;18.82;100.00
15971;BME280;59785;52.582;13.892;2022-08-19T03:18:12;100139.44;;;18.77;100.00
15971;BME280;59785;52.582;13.892;2022-08-19T03:20:47;100154.09;;;18.69;100.00
15971;BME280;59785;52.582;13.892;2022-08-19T03:23:14;100150.19;;;18.65;100.00
15971;BME280;59785;52.582;13.892;2022-08-19T03:25:44;100166.03;;;18.68;100.00
15971;BME280;59785;52.582;13.892;2022-08-19T03:28:12;100155.81;;;18.63;100.00
15971;BME280;59785;52.582;13.892;2022-08-19T03:30:41;100146.47;;;18.59;100.00
15971;BME280;59785;52.582;13.892;2022-08-19T03:33:09;100149.56;;;18.63;100.00
15971;BME280;59785;52.582;13.892;2022-08-19T03:35:42;100143.06;;;18.64;100.00
15971;BME280;59785;52.582;13.892;2022-08-19T03:38:09;100154.38;;;18.61;100.00
15971;BME280;59785;52.582;13.892;2022-08-19T03:40:36;100167.56;;;18.57;100.00
15971;BME280;59785;52.582;13.892;2022-08-19T03:43:03;100169.25;;;18.58;100.00
15971;BME280;59785;52.582;13.892;2022-08-19T03:45:29;100169.47;;;18.50;100.00
15971;BME280;59785;52.582;13.892;2022-08-19T03:47:55;100157.81;;;18.49;100.00
15971;BME280;59785;52.582;13.892;2022-08-19T03:50:21;100157.59;;;18.51;100.00
15971;BME280;59785;52.582;13.892;2022-08-19T03:52:51;100144.66;;;18.53;100.00
15971;BME280;59785;52.582;13.892;2022-08-19T03:55:18;100160.53;;;18.49;100.00
15971;BME280;59785;52.582;13.892;2022-08-19T03:57:44;100150.34;;;18.45;100.00
15971;BME280;59785;52.582;13.892;2022-08-19T04:00:12;100164.94;;;18.44;100.00
15971;BME280;59785;52.582;13.892;2022-08-19T04:02:40;100159.09;;;18.47;100.00
15971;BME280;59785;52.582;13.892;2022-08-19T04:05:06;100152.25;;;18.38;100.00
15971;BME280;59785;52.582;13.892;2022-08-19T04:07:34;100113.78;;;18.47;100.00
15971;BME280;59785;52.582;13.892;2022-08-19T04:10:00;100102.94;;;18.47;100.00
15971;BME280;59785;52.582;13.892;2022-08-19T04:12:26;100140.75;;;18.42;100.00
15971;BME280;59785;52.582;13.892;2022-08-19T04:14:52;100138.28;;;18.41;100.00
15971;BME280;59785;52.582;13.892;2022-08-19T04:17:19;100125.53;;;18.41;100.00
15971;BME280;59785;52.582;13.892;2022-08-19T04:19:45;100123.84;;;18.40;100.00
15971;BME280;59785;52.582;13.892;2022-08-19T04:22:11;100132.19;;;18.45;100.00
15971;BME280;59785;52.582;13.892;2022-08-19T04:24:37;100134.06;;;18.45;100.00
15971;BME280;59785;52.582;13.892;2022-08-19T04:27:04;100135.94;;;18.44;100.00
15971;BME280;59785;52.582;13.892;2022-08-19T04:29:32;100141.34;;;18.44;100.00
15971;BME280;59785;52.582;13.892;2022-08-19T04:31:59;100126.94;;;18.50;100.00
15971;BME280;59785;52.582;13.892;2022-08-19T04:34:34;100097.69;;;18.52;100.00
15971;BME280;59785;52.582;13.892;2022-08-19T04:37:00;100107.66;;;18.59;100.00
15971;BME280;59785;52.582;13.892;2022-08-19T04:39:30;100106.19;;;18.56;100.00
15971;BME280;59785;52.582;13.892;2022-08-19T04:42:16;100106.44;;;18.55;100.00
15971;BME280;59785;52.582;13.892;2022-08-19T04:45:02;100115.72;;;18.65;100.00
15971;BME280;59785;52.582;13.892;2022-08-19T04:47:34;100118.00;;;18.68;100.00
15971;BME280;59785;52.582;13.892;2022-08-19T04:50:14;100111.28;;;18.71;100.00
15971;BME280;59785;52.582;13.892;2022-08-19T04:52:43;100119.44;;;18.71;100.00
15971;BME280;59785;52.582;13.892;2022-08-19T04:55:10;100109.41;;;18.71;100.00
15971;BME280;59785;52.582;13.892;2022-08-19T04:57:36;100111.88;;;18.80;100.00
15971;BME280;59785;52.582;13.892;2022-08-19T05:00:09;100104.09;;;18.83;100.00
15971;BME280;59785;52.582;13.892;2022-08-19T05:02:37;100111.81;;;18.86;100.00
15971;BME280;59785;52.582;13.892;2022-08-19T05:05:04;100112.59;;;18.94;100.00
15971;BME280;59785;52.582;13.892;2022-08-19T05:07:32;100103.16;;;18.96;100.00
15971;BME280;59785;52.582;13.892;2022-08-19T05:09:58;100102.47;;;19.01;100.00
15971;BME280;59785;52.582;13.892;2022-08-19T05:12:25;100104.75;;;19.04;100.00
15971;BME280;59785;52.582;13.892;2022-08-19T05:14:54;100101.50;;;19.14;100.00
15971;BME280;59785;52.582;13.892;2022-08-19T05:17:23;100103.09;;;19.21;100.00
15971;BME280;59785;52.582;13.892;2022-08-19T05:19:54;100104.00;;;19.15;100.00
15971;BME280;59785;52.582;13.892;2022-08-19T05:22:40;100094.66;;;19.11;100.00
15971;BME280;59785;52.582;13.892;2022-08-19T05:25:09;100109.50;;;19.08;100.00
15971;BME280;59785;52.582;13.892;2022-08-19T05:27:39;100108.63;;;19.15;100.00
15971;BME280;59785;52.582;13.892;2022-08-19T05:30:06;100108.53;;;19.21;100.00
15971;BME280;59785;52.582;13.892;2022-08-19T05:32:32;100109.66;;;19.14;100.00
15971;BME280;59785;52.582;13.892;2022-08-19T05:34:58;100103.78;;;19.17;100.00
15971;BME280;59785;52.582;13.892;2022-08-19T05:37:24;100102.72;;;19.18;100.00
15971;BME280;59785;52.582;13.892;2022-08-19T05:39:53;100101.28;;;19.34;100.00
15971;BME280;59785;52.582;13.892;2022-08-19T05:42:20;100100.81;;;19.37;100.00
15971;BME280;59785;52.582;13.892;2022-08-19T05:44:48;100096.38;;;19.42;100.00
15971;BME280;59785;52.582;13.892;2022-08-19T05:47:15;100097.19;;;19.61;100.00
15971;BME280;59785;52.582;13.892;2022-08-19T05:49:43;100107.69;;;19.58;100.00
15971;BME280;59785;52.582;13.892;2022-08-19T05:52:13;100105.84;;;19.70;100.00
15971;BME280;59785;52.582;13.892;2022-08-19T05:54:43;100111.72;;;19.67;100.00
15971;BME280;59785;52.582;13.892;2022-08-19T05:57:16;100110.00;;;19.73;100.00
15971;BME280;59785;52.582;13.892;2022-08-19T05:59:42;100116.34;;;19.85;100.00
15971;BME280;59785;52.582;13.892;2022-08-19T06:02:11;100115.88;;;19.88;100.00
15971;BME280;59785;52.582;13.892;2022-08-19T06:04:37;100118.09;;;19.79;100.00
15971;BME280;59785;52.582;13.892;2022-08-19T06:07:05;100118.00;;;19.67;100.00
15971;BME280;59785;52.582;13.892;2022-08-19T06:09:37;100119.50;;;19.82;100.00
15971;BME280;59785;52.582;13.892;2022-08-19T06:12:04;100108.03;;;19.80;100.00
15971;BME280;59785;52.582;13.892;2022-08-19T06:14:32;100119.78;;;19.92;100.00
15971;BME280;59785;52.582;13.892;2022-08-19T06:17:05;100117.34;;;19.72;100.00
15971;BME280;59785;52.582;13.892;2022-08-19T06:19:32;100120.81;;;19.79;100.00
15971;BME280;59785;52.582;13.892;2022-08-19T06:21:59;100125.81;;;19.94;100.00
15971;BME280;59785;52.582;13.892;2022-08-19T06:24:29;100130.81;;;19.97;100.00
15971;BME280;59785;52.582;13.892;2022-08-19T06:26:56;100128.09;;;19.97;100.00
15971;BME280;59785;52.582;13.892;2022-08-19T06:29:27;100124.66;;;20.02;100.00
15971;BME280;59785;52.582;13.892;2022-08-19T06:31:56;100124.25;;;20.17;100.00
15971;BME280;59785;52.582;13.892;2022-08-19T06:34:24;100129.50;;;20.30;100.00
15971;BME280;59785;52.582;13.892;2022-08-19T06:36:51;100132.72;;;20.51;100.00
15971;BME280;59785;52.582;13.892;2022-08-19T06:39:23;100128.22;;;20.44;100.00
15971;BME280;59785;52.582;13.892;2022-08-19T06:41:52;100126.78;;;20.30;100.00
15971;BME280;59785;52.582;13.892;2022-08-19T06:44:25;100132.00;;;20.43;100.00
15971;BME280;59785;52.582;13.892;2022-08-19T06:46:53;100128.31;;;20.38;100.00
15971;BME280;59785;52.582;13.892;2022-08-19T06:49:20;100141.84;;;20.56;100.00
15971;BME280;59785;52.582;13.892;2022-08-19T06:51:48;100150.69;;;20.40;100.00
15971;BME280;59785;52.582;13.892;2022-08-19T06:54:17;100156.53;;;20.55;100.00
15971;BME280;59785;52.582;13.892;2022-08-19T06:56:45;100147.44;;;20.61;100.00
15971;BME280;59785;52.582;13.892;2022-08-19T06:59:17;100160.81;;;20.63;100.00
15971;BME280;59785;52.582;13.892;2022-08-19T07:01:47;100168.41;;;20.61;100.00
15971;BME280;59785;52.582;13.892;2022-08-19T07:04:16;100159.53;;;20.65;100.00
15971;BME280;59785;52.582;13.892;2022-08-19T07:06:44;100168.88;;;20.70;100.00
15971;BME280;59785;52.582;13.892;2022-08-19T07:09:20;100166.91;;;20.46;100.00
15971;BME280;59785;52.582;13.892;2022-08-19T07:11:50;100166.63;;;20.24;100.00
15971;BME280;59785;52.582;13.892;2022-08-19T07:14:21;100170.91;;;20.32;100.00
15971;BME280;59785;52.582;13.892;2022-08-19T07:16:50;100169.44;;;20.18;100.00
15971;BME280;59785;52.582;13.892;2022-08-19T07:19:18;100164.94;;;20.23;100.00
15971;BME280;59785;52.582;13.892;2022-08-19T07:21:47;100172.28;;;20.23;100.00
15971;BME280;59785;52.582;13.892;2022-08-19T07:24:16;100174.72;;;20.13;100.00
15971;BME280;59785;52.582;13.892;2022-08-19T07:26:43;100163.38;;;20.16;100.00
15971;BME280;59785;52.582;13.892;2022-08-19T07:29:10;100172.25;;;20.11;100.00
15971;BME280;59785;52.582;13.892;2022-08-19T07:31:38;100170.94;;;20.14;100.00
15971;BME280;59785;52.582;13.892;2022-08-19T07:34:06;100167.91;;;20.22;100.00
15971;BME280;59785;52.582;13.892;2022-08-19T07:36:35;100162.88;;;20.07;100.00
15971;BME280;59785;52.582;13.892;2022-08-19T07:39:05;100155.22;;;20.16;100.00
15971;BME280;59785;52.582;13.892;2022-08-19T07:41:34;100155.50;;;20.26;100.00
15971;BME280;59785;52.582;13.892;2022-08-19T07:44:01;100166.06;;;20.34;100.00
15971;BME280;59785;52.582;13.892;2022-08-19T07:46:31;100164.25;;;20.28;100.00
15971;BME280;59785;52.582;13.892;2022-08-19T07:48:57;100160.59;;;20.34;100.00
15971;BME280;59785;52.582;13.892;2022-08-19T07:51:24;100156.25;;;20.45;100.00
15971;BME280;59785;52.582;13.892;2022-08-19T07:54:02;100159.66;;;20.40;100.00
15971;BME280;59785;52.582;13.892;2022-08-19T07:56:28;100163.34;;;20.46;100.00
15971;BME280;59785;52.582;13.892;2022-08-19T07:58:54;100158.34;;;20.73;100.00
15971;BME280;59785;52.582;13.892;2022-08-19T08:01:24;100171.72;;;20.75;100.00
15971;BME280;59785;52.582;13.892;2022-08-19T08:03:56;100162.75;;;20.74;100.00
15971;BME280;59785;52.582;13.892;2022-08-19T08:06:41;100158.94;;;20.75;100.00
15971;BME280;59785;52.582;13.892;2022-08-19T08:09:31;100149.97;;;20.86;100.00
15971;BME280;59785;52.582;13.892;2022-08-19T08:12:04;100149.94;;;20.75;100.00
15971;BME280;59785;52.582;13.892;2022-08-19T08:14:53;100161.81;;;20.92;100.00
15971;BME280;59785;52.582;13.892;2022-08-19T08:17:24;100159.66;;;20.82;100.00
15971;BME280;59785;52.582;13.892;2022-08-19T08:20:11;100162.25;;;20.89;100.00
15971;BME280;59785;52.582;13.892;2022-08-19T08:22:42;100161.91;;;21.09;100.00
15971;BME280;59785;52.582;13.892;2022-08-19T08:25:27;100157.53;;;20.96;100.00
15971;BME280;59785;52.582;13.892;2022-08-19T08:27:57;100158.00;;;21.05;100.00
15971;BME280;59785;52.582;13.892;2022-08-19T08:30:27;100157.31;;;21.10;100.00
15971;BME280;59785;52.582;13.892;2022-08-19T08:32:57;100156.81;;;21.13;100.00
15971;BME280;59785;52.582;13.892;2022-08-19T08:35:24;100159.78;;;21.11;100.00
15971;BME280;59785;52.582;13.892;2022-08-19T08:37:53;100166.16;;;21.05;100.00
15971;BME280;59785;52.582;13.892;2022-08-19T08:40:33;100162.16;;;21.07;100.00
15971;BME280;59785;52.582;13.892;2022-08-19T08:43:07;100172.91;;;21.38;100.00
15971;BME280;59785;52.582;13.892;2022-08-19T08:45:42;100172.28;;;21.59;100.00
15971;BME280;59785;52.582;13.892;2022-08-19T08:48:34;100180.09;;;21.79;100.00
15971;BME280;59785;52.582;13.892;2022-08-19T08:51:05;100175.53;;;21.85;100.00
15971;BME280;59785;52.582;13.892;2022-08-19T08:53:34;100177.41;;;21.96;100.00
15971;BME280;59785;52.582;13.892;2022-08-19T08:56:08;100183.06;;;21.78;100.00
15971;BME280;59785;52.582;13.892;2022-08-19T08:58:58;100190.66;;;22.04;100.00
15971;BME280;59785;52.582;13.892;2022-08-19T09:01:25;100182.69;;;22.15;100.00
15971;BME280;59785;52.582;13.892;2022-08-19T09:03:55;100182.50;;;22.33;100.00
15971;BME280;59785;52.582;13.892;2022-08-19T09:06:37;100179.38;;;22.58;100.00
15971;BME280;59785;52.582;13.892;2022-08-19T09:09:22;100185.00;;;22.69;100.00
15971;BME280;59785;52.582;13.892;2022-08-19T09:11:55;100184.53;;;22.89;100.00
15971;BME280;59785;52.582;13.892;2022-08-19T09:14:44;100191.06;;;23.21;100.00
15971;BME280;59785;52.582;13.892;2022-08-19T09:17:17;100202.94;;;23.49;97.56
15971;BME280;59785;52.582;13.892;2022-08-19T09:19:57;100204.50;;;23.84;96.85
15971;BME280;59785;52.582;13.892;2022-08-19T09:22:23;100209.50;;;24.14;92.42
15971;BME280;59785;52.582;13.892;2022-08-19T09:24:52;100203.81;;;23.94;88.52
15971;BME280;59785;52.582;13.892;2022-08-19T09:27:20;100203.50;;;23.90;88.38
15971;BME280;59785;52.582;13.892;2022-08-19T09:30:11;100202.13;;;23.71;88.19
15971;BME280;59785;52.582;13.892;2022-08-19T09:32:38;100198.09;;;23.95;89.53
15971;BME280;59785;52.582;13.892;2022-08-19T09:35:08;100193.63;;;23.89;88.03
15971;BME280;59785;52.582;13.892;2022-08-19T09:37:34;100197.19;;;23.90;89.80
15971;BME280;59785;52.582;13.892;2022-08-19T09:40:01;100189.88;;;23.95;86.74
15971;BME280;59785;52.582;13.892;2022-08-19T09:42:27;100192.00;;;24.15;87.73
15971;BME280;59785;52.582;13.892;2022-08-19T09:44:55;100202.88;;;24.32;89.12
15971;BME280;59785;52.582;13.892;2022-08-19T09:47:24;100206.09;;;24.02;86.35
15971;BME280;59785;52.582;13.892;2022-08-19T09:49:50;100205.91;;;23.87;86.82
15971;BME280;59785;52.582;13.892;2022-08-19T09:52:16;100195.97;;;23.58;87.85
15971;BME280;59785;52.582;13.892;2022-08-19T09:54:43;100192.94;;;23.60;88.90
15971;BME280;59785;52.582;13.892;2022-08-19T09:57:17;100189.47;;;23.65;90.90
15971;BME280;59785;52.582;13.892;2022-08-19T09:59:43;100188.31;;;23.60;89.41
15971;BME280;59785;52.582;13.892;2022-08-19T10:02:10;100181.25;;;23.65;90.46
15971;BME280;59785;52.582;13.892;2022-08-19T10:04:37;100188.94;;;23.68;90.53
15971;BME280;59785;52.582;13.892;2022-08-19T10:07:22;100191.19;;;23.71;91.02
15971;BME280;59785;52.582;13.892;2022-08-19T10:10:03;100190.38;;;23.70;88.45
15971;BME280;59785;52.582;13.892;2022-08-19T10:12:29;100188.03;;;23.79;88.16
15971;BME280;59785;52.582;13.892;2022-08-19T10:14:56;100183.09;;;23.59;87.58
15971;BME280;59785;52.582;13.892;2022-08-19T10:17:22;100186.91;;;23.58;87.70
15971;BME280;59785;52.582;13.892;2022-08-19T10:19:52;100188.53;;;23.98;88.30
15971;BME280;59785;52.582;13.892;2022-08-19T10:22:21;100190.31;;;24.36;87.70
15971;BME280;59785;52.582;13.892;2022-08-19T10:24:47;100184.47;;;24.55;84.34
15971;BME280;59785;52.582;13.892;2022-08-19T10:27:13;100188.72;;;24.46;81.84
15971;BME280;59785;52.582;13.892;2022-08-19T10:29:41;100181.16;;;24.53;83.56
15971;BME280;59785;52.582;13.892;2022-08-19T10:32:11;100182.56;;;24.55;82.36
15971;BME280;59785;52.582;13.892;2022-08-19T10:34:39;100173.31;;;24.34;81.90
15971;BME280;59785;52.582;13.892;2022-08-19T10:37:13;100173.59;;;24.38;83.15
15971;BME280;59785;52.582;13.892;2022-08-19T10:39:46;100165.00;;;24.51;82.28
15971;BME280;59785;52.582;13.892;2022-08-19T10:42:14;100158.53;;;24.63;82.50
15971;BME280;59785;52.582;13.892;2022-08-19T10:44:42;100161.19;;;24.90;81.15
15971;BME280;59785;52.582;13.892;2022-08-19T10:47:09;100166.22;;;24.66;78.10
15971;BME280;59785;52.582;13.892;2022-08-19T10:49:50;100171.41;;;24.62;81.02
15971;BME280;59785;52.582;13.892;2022-08-19T10:52:37;100174.19;;;25.05;79.58
15971;BME280;59785;52.582;13.892;2022-08-19T10:55:05;100166.19;;;24.98;77.69
15971;BME280;59785;52.582;13.892;2022-08-19T10:57:54;100176.47;;;25.18;77.48
15971;BME280;59785;52.582;13.892;2022-08-19T11:00:27;100164.81;;;24.95;76.76
15971;BME280;59785;52.582;13.892;2022-08-19T11:02:54;100171.34;;;24.94;77.29
15971;BME280;59785;52.582;13.892;2022-08-19T11:05:20;100157.84;;;24.83;77.16
15971;BME280;59785;52.582;13.892;2022-08-19T11:07:49;100167.28;;;25.02;77.56
15971;BME280;59785;52.582;13.892;2022-08-19T11:10:17;100168.81;;;25.20;76.18
15971;BME280;59785;52.582;13.892;2022-08-19T11:12:47;100173.56;;;25.30;75.24
15971;BME280;59785;52.582;13.892;2022-08-19T11:15:13;100168.78;;;25.68;75.89
15971;BME280;59785;52.582;13.892;2022-08-19T11:17:40;100172.19;;;25.32;73.53
15971;BME280;59785;52.582;13.892;2022-08-19T11:20:11;100181.66;;;25.14;74.83
15971;BME280;59785;52.582;13.892;2022-08-19T11:22:39;100183.59;;;25.19;74.97
15971;BME280;59785;52.582;13.892;2022-08-19T11:25:08;100181.09;;;25.12;74.94
15971;BME280;59785;52.582;13.892;2022-08-19T11:27:38;100179.59;;;25.32;74.20
15971;BME280;59785;52.582;13.892;2022-08-19T11:30:06;100197.56;;;25.55;74.79
15971;BME280;59785;52.582;13.892;2022-08-19T11:32:37;100187.84;;;25.95;72.51
15971;BME280;59785;52.582;13.892;2022-08-19T11:35:03;100177.22;;;26.19;70.34
15971;BME280;59785;52.582;13.892;2022-08-19T11:37:30;100171.47;;;26.26;69.92
15971;BME280;59785;52.582;13.892;2022-08-19T11:39:56;100178.84;;;26.20;69.21
15971;BME280;59785;52.582;13.892;2022-08-19T11:42:22;100183.22;;;26.01;69.36
15971;BME280;59785;52.582;13.892;2022-08-19T11:45:07;100185.88;;;25.80;70.26
15971;BME280;59785;52.582;13.892;2022-08-19T11:47:34;100188.28;;;25.71;71.43
15971;BME280;59785;52.582;13.892;2022-08-19T11:50:00;100191.97;;;25.02;73.62
15971;BME280;59785;52.582;13.892;2022-08-19T11:52:26;100193.88;;;24.96;74.82
15971;BME280;59785;52.582;13.892;2022-08-19T11:54:53;100200.88;;;24.82;76.27
15971;BME280;59785;52.582;13.892;2022-08-19T11:57:19;100214.44;;;24.67;77.76
15971;BME280;59785;52.582;13.892;2022-08-19T11:59:50;100214.19;;;24.68;77.92
15971;BME280;59785;52.582;13.892;2022-08-19T12:02:17;100216.59;;;24.59;77.40
15971;BME280;59785;52.582;13.892;2022-08-19T12:04:44;100210.81;;;24.61;78.45
15971;BME280;59785;52.582;13.892;2022-08-19T12:07:11;100214.34;;;24.56;78.51
15971;BME280;59785;52.582;13.892;2022-08-19T12:09:37;100220.44;;;24.64;77.96
15971;BME280;59785;52.582;13.892;2022-08-19T12:12:07;100218.88;;;24.73;77.43
15971;BME280;59785;52.582;13.892;2022-08-19T12:14:34;100214.25;;;24.78;77.86
15971;BME280;59785;52.582;13.892;2022-08-19T12:17:01;100220.31;;;24.80;76.48
15971;BME280;59785;52.582;13.892;2022-08-19T12:19:28;100220.72;;;24.67;76.72
15971;BME280;59785;52.582;13.892;2022-08-19T12:21:58;100223.34;;;24.79;75.89
15971;BME280;59785;52.582;13.892;2022-08-19T12:24:26;100222.03;;;24.87;76.33
15971;BME280;59785;52.582;13.892;2022-08-19T12:26:53;100224.03;;;24.96;77.32
15971;BME280;59785;52.582;13.892;2022-08-19T12:29:25;100226.84;;;25.07;75.33
15971;BME280;59785;52.582;13.892;2022-08-19T12:31:56;100226.16;;;24.94;75.78
15971;BME280;59785;52.582;13.892;2022-08-19T12:34:30;100224.22;;;24.90;76.12
15971;BME280;59785;52.582;13.892;2022-08-19T12:36:57;100227.72;;;24.80;76.63
15971;BME280;59785;52.582;13.892;2022-08-19T12:39:25;100224.56;;;24.66;77.85
15971;BME280;59785;52.582;13.892;2022-08-19T12:41:51;100221.75;;;24.56;78.74
15971;BME280;59785;52.582;13.892;2022-08-19T12:44:20;100229.22;;;24.38;79.14
15971;BME280;59785;52.582;13.892;2022-08-19T12:46:57;100232.13;;;24.32;79.62
15971;BME280;59785;52.582;13.892;2022-08-19T12:49:23;100233.50;;;24.29;80.03
15971;BME280;59785;52.582;13.892;2022-08-19T12:52:10;100226.94;;;24.30;79.30
15971;BME280;59785;52.582;13.892;2022-08-19T12:54:39;100225.59;;;24.33;79.51
15971;BME280;59785;52.582;13.892;2022-08-19T12:57:07;100220.47;;;24.41;80.40